Time;durP1;ratioP1;P1;durP2;ratioP2;P2;SDS_P1;SDS_P2;PMS_P1;PMS_P2;Temp;Humidity;BMP_temperature;BMP_pressure;BME280_temperature;BME280_humidity;BME280_pressure;Samples;Min_cycle;Max_cycle;Signal;HPM_P1;HPM_P2
2022/01/24 00:01:16;;;;;;;26.15;10.13;;;6.50;99.90;;;;;;4849528;29;20841;-64
2022/01/24 00:03:41;;;;;;;39.75;11.90;;;6.50;99.90;;;;;;4863012;29;20090;-64
2022/01/24 00:06:10;;;;;;;30.20;10.88;;;6.60;99.90;;;;;;4860557;29;20029;-64
2022/01/24 00:08:36;;;;;;;56.20;13.25;;;6.50;99.90;;;;;;4852621;29;20545;-64
2022/01/24 00:11:06;;;;;;;27.45;10.60;;;6.60;99.90;;;;;;4851451;29;20025;-64
2022/01/24 00:16:18;;;;;;;40.45;11.43;;;6.60;99.90;;;;;;4862788;29;20120;-64
2022/01/24 00:26:49;;;;;;;29.05;10.70;;;6.50;99.90;;;;;;4862917;29;20037;-64
2022/01/24 00:29:14;;;;;;;46.92;12.43;;;6.50;99.90;;;;;;4848621;29;20048;-64
2022/01/24 00:31:40;;;;;;;27.58;11.93;;;6.50;99.90;;;;;;4851734;29;20033;-64
2022/01/24 00:34:05;;;;;;;24.20;10.02;;;6.60;99.90;;;;;;4851852;29;20033;-64
2022/01/24 00:36:31;;;;;;;36.85;11.88;;;6.50;99.90;;;;;;4864952;29;20097;-64
2022/01/24 00:38:56;;;;;;;36.72;12.27;;;6.60;99.90;;;;;;4853763;29;20040;-64
2022/01/24 00:41:22;;;;;;;31.73;11.40;;;6.60;99.90;;;;;;4866607;29;20132;-64
2022/01/24 00:44:27;;;;;;;44.95;12.88;;;6.40;99.90;;;;;;4866984;29;20044;-64
2022/01/24 00:46:57;;;;;;;41.35;12.90;;;6.50;99.90;;;;;;4844138;29;20040;-64
2022/01/24 00:49:44;;;;;;;39.63;12.70;;;6.60;99.90;;;;;;4844865;29;20584;-64
2022/01/24 00:54:52;;;;;;;33.75;13.80;;;6.60;99.90;;;;;;4861717;29;20127;-64
2022/01/24 00:57:17;;;;;;;45.20;13.98;;;6.60;99.90;;;;;;4851218;29;20113;-64
2022/01/24 00:59:43;;;;;;;59.10;15.98;;;6.50;99.90;;;;;;4864764;29;20048;-64
2022/01/24 01:02:08;;;;;;;69.15;17.75;;;6.50;99.90;;;;;;4861216;29;20041;-65
2022/01/24 01:05:29;;;;;;;59.88;17.85;;;6.60;99.90;;;;;;4866804;29;20029;-64
2022/01/24 01:07:35;;;;;;;59.78;16.17;;;6.60;99.90;;;;;;4853355;29;20044;-64
2022/01/24 01:18:30;;;;;;;68.43;17.98;;;6.60;99.90;;;;;;4864262;29;20045;-64
2022/01/24 01:23:24;;;;;;;72.32;18.83;;;6.50;99.90;;;;;;4853619;29;20045;-64
2022/01/24 01:25:51;;;;;;;91.68;19.15;;;6.50;99.90;;;;;;4867113;29;20025;-64
2022/01/24 01:28:18;;;;;;;72.90;19.08;;;6.50;99.90;;;;;;4861628;29;20048;-63
2022/01/24 01:30:47;;;;;;;88.15;19.60;;;6.50;99.90;;;;;;4853284;29;20458;-63
2022/01/24 01:33:34;;;;;;;93.32;20.65;;;6.50;99.90;;;;;;4850255;29;20041;-64
2022/01/24 01:52:25;;;;;;;92.75;19.30;;;6.40;99.90;;;;;;4862933;29;20426;-65
2022/01/24 01:55:13;;;;;;;68.20;18.55;;;6.40;99.90;;;;;;4864051;29;20132;-64
2022/01/24 01:57:39;;;;;;;71.90;18.00;;;6.40;99.90;;;;;;4862033;29;20581;-64
2022/01/24 02:00:04;;;;;;;86.63;19.50;;;6.40;99.90;;;;;;4844811;29;20043;-64
2022/01/24 02:02:34;;;;;;;69.40;18.38;;;6.50;99.90;;;;;;4851654;29;20043;-64
2022/01/24 02:04:59;;;;;;;62.22;18.15;;;6.40;99.90;;;;;;4852302;29;20025;-64
2022/01/24 02:07:25;;;;;;;86.63;19.77;;;6.40;99.90;;;;;;4863935;29;20033;-64
2022/01/24 02:09:51;;;;;;;60.05;18.98;;;6.30;99.90;;;;;;4865245;29;20820;-64
2022/01/24 02:12:19;;;;;;;79.38;18.38;;;6.30;99.90;;;;;;4842986;29;20517;-64
2022/01/24 02:14:54;;;;;;;67.13;17.20;;;6.30;99.90;;;;;;4837911;29;20860;-64
2022/01/24 02:17:29;;;;;;;;;;;6.30;99.90;;;;;;4866422;29;20104;-64
2022/01/24 02:20:27;;;;;;;69.43;18.05;;;6.40;99.90;;;;;;4865804;29;19923;-64
2022/01/24 02:23:17;;;;;;;92.60;18.30;;;6.30;99.90;;;;;;4861282;29;20034;-64
2022/01/24 02:25:38;;;;;;;62.15;17.75;;;6.30;99.90;;;;;;4861484;29;20041;-64
2022/01/24 02:28:05;;;;;;;51.97;17.42;;;6.30;99.90;;;;;;4861166;29;20055;-64
2022/01/24 02:30:55;;;;;;;52.05;16.35;;;6.30;99.90;;;;;;4867212;29;20508;-64
2022/01/24 02:33:20;;;;;;;55.08;17.02;;;6.30;99.90;;;;;;4863303;29;20045;-64
2022/01/24 02:35:46;;;;;;;96.13;19.23;;;6.30;99.90;;;;;;4852360;29;20033;-64
2022/01/24 02:45:58;;;;;;;63.67;17.30;;;6.30;99.90;;;;;;4862212;29;20374;-64
2022/01/24 02:48:57;;;;;;;56.40;16.35;;;6.20;99.90;;;;;;4864276;29;20542;-64
2022/01/24 02:51:43;;;;;;;62.80;16.10;;;6.30;99.90;;;;;;4865585;29;20045;-64
2022/01/24 02:54:09;;;;;;;81.07;16.45;;;6.30;99.90;;;;;;4859990;29;20533;-64
2022/01/24 02:56:34;;;;;;;71.35;17.20;;;6.30;99.90;;;;;;4864066;29;20160;-64
2022/01/24 02:59:00;;;;;;;69.47;17.60;;;6.30;99.90;;;;;;4867157;29;20032;-64
2022/01/24 03:01:25;;;;;;;83.38;19.30;;;6.30;99.90;;;;;;4864026;29;20041;-64
2022/01/24 03:03:51;;;;;;;46.88;16.60;;;6.30;99.90;;;;;;4866963;29;20124;-64
2022/01/24 03:06:16;;;;;;;69.28;17.77;;;6.20;99.90;;;;;;4860501;29;20042;-64
2022/01/24 03:08:42;;;;;;;49.55;15.88;;;6.20;99.90;;;;;;4852638;29;20121;-63
2022/01/24 03:11:07;;;;;;;67.18;17.67;;;6.20;99.90;;;;;;4865328;29;20032;-64
2022/01/24 03:13:33;;;;;;;85.57;19.30;;;6.20;99.90;;;;;;4862391;29;20037;-64
2022/01/24 03:15:59;;;;;;;60.45;16.10;;;6.30;99.90;;;;;;4864523;29;20044;-64
2022/01/24 03:18:24;;;;;;;68.70;16.55;;;6.20;99.90;;;;;;4861152;29;20044;-64
2022/01/24 03:20:50;;;;;;;66.50;16.83;;;6.20;99.90;;;;;;4858017;29;20035;-64
2022/01/24 03:23:15;;;;;;;64.88;16.50;;;6.20;99.90;;;;;;4861297;29;20047;-64
2022/01/24 03:25:41;;;;;;;77.10;17.65;;;6.20;99.90;;;;;;4870009;29;20033;-64
2022/01/24 03:28:06;;;;;;;70.60;17.15;;;6.20;99.90;;;;;;4867787;29;20053;-64
2022/01/24 03:30:32;;;;;;;45.15;14.68;;;6.10;99.90;;;;;;4865576;29;20056;-64
2022/01/24 03:32:57;;;;;;;82.65;18.83;;;6.10;99.90;;;;;;4846982;29;20521;-64
2022/01/24 03:35:23;;;;;;;61.53;17.92;;;6.10;99.90;;;;;;4859270;29;20094;-64
2022/01/24 03:37:48;;;;;;;65.47;17.33;;;6.10;99.90;;;;;;4851291;29;20037;-64
2022/01/24 03:40:14;;;;;;;54.42;15.95;;;6.10;99.90;;;;;;4866409;29;20029;-64
2022/01/24 03:42:39;;;;;;;70.78;18.13;;;6.00;99.90;;;;;;4851083;29;20029;-64
2022/01/24 03:45:07;;;;;;;70.57;17.17;;;6.10;99.90;;;;;;4863896;29;20504;-64
2022/01/24 03:50:01;;;;;;;62.55;16.73;;;6.10;99.90;;;;;;4860243;29;20065;-64
2022/01/24 03:52:26;;;;;;;92.95;18.90;;;6.20;99.90;;;;;;4864817;29;20040;-64
2022/01/24 03:54:52;;;;;;;89.85;19.00;;;6.00;99.90;;;;;;4870782;29;20106;-64
2022/01/24 03:57:17;;;;;;;73.90;18.50;;;6.10;99.90;;;;;;4870023;29;20153;-64
2022/01/24 03:59:43;;;;;;;86.03;19.42;;;6.20;99.90;;;;;;4856808;29;20048;-64
2022/01/24 04:02:08;;;;;;;106.95;20.95;;;6.20;99.90;;;;;;4847321;29;20064;-64
2022/01/24 04:04:34;;;;;;;71.72;18.13;;;6.10;99.90;;;;;;4864114;29;20037;-64
2022/01/24 04:06:59;;;;;;;97.53;19.52;;;6.10;99.90;;;;;;4867343;29;20558;-65
2022/01/24 04:09:25;;;;;;;81.22;18.98;;;6.00;99.90;;;;;;4872039;29;20069;-63
2022/01/24 04:11:51;;;;;;;109.43;20.27;;;6.00;99.90;;;;;;4867991;29;20040;-64
2022/01/24 04:17:20;;;;;;;97.78;20.73;;;6.10;99.90;;;;;;4866695;29;20044;-64
2022/01/24 04:22:02;;;;;;;90.78;20.73;;;6.00;99.90;;;;;;4857620;29;20045;-64
2022/01/24 04:24:28;;;;;;;106.32;21.40;;;6.00;99.90;;;;;;4855973;29;20550;-64
2022/01/24 04:26:54;;;;;;;97.45;20.05;;;6.00;99.90;;;;;;4866878;29;20037;-64
2022/01/24 04:29:19;;;;;;;64.97;19.35;;;5.90;99.90;;;;;;4863862;29;20052;-64
2022/01/24 04:31:45;;;;;;;103.32;21.17;;;5.90;99.90;;;;;;4854288;29;20453;-64
2022/01/24 04:34:10;;;;;;;95.18;21.15;;;5.90;99.90;;;;;;4863441;29;20553;-64
2022/01/24 04:36:36;;;;;;;103.28;21.48;;;5.90;99.90;;;;;;4868486;29;20052;-64
2022/01/24 04:39:01;;;;;;;82.38;20.85;;;5.80;99.90;;;;;;4868181;29;20040;-64
2022/01/24 04:41:31;;;;;;;84.22;20.50;;;5.90;99.90;;;;;;4866120;29;20038;-64
2022/01/24 04:52:13;;;;;;;75.25;19.48;;;5.90;99.90;;;;;;4863542;29;20076;-64
2022/01/24 04:54:44;;;;;;;77.40;19.07;;;5.80;99.90;;;;;;4868889;29;20045;-64
2022/01/24 04:57:10;;;;;;;121.18;21.77;;;5.80;99.90;;;;;;4848218;29;20044;-64
2022/01/24 04:59:35;;;;;;;86.13;19.27;;;5.80;99.90;;;;;;4846242;29;20052;-64
2022/01/24 05:02:01;;;;;;;91.65;20.27;;;5.80;99.90;;;;;;4862930;29;20385;-64
2022/01/24 05:04:27;;;;;;;115.47;21.08;;;5.80;99.90;;;;;;4852282;29;20044;-64
2022/01/24 05:06:52;;;;;;;87.50;20.45;;;5.80;99.90;;;;;;4867763;29;20048;-64
2022/01/24 05:09:19;;;;;;;98.95;21.02;;;5.90;99.90;;;;;;4867426;29;20055;-64
2022/01/24 05:11:53;;;;;;;82.82;20.25;;;5.80;99.90;;;;;;4867550;29;20042;-64
2022/01/24 05:25:16;;;;;;;127.55;21.67;;;5.60;99.90;;;;;;4865557;29;20037;-64
2022/01/24 05:27:41;;;;;;;81.90;18.55;;;5.70;99.90;;;;;;4851416;29;20069;-64
2022/01/24 05:30:07;;;;;;;104.90;20.80;;;5.70;99.90;;;;;;4862498;29;20037;-64
2022/01/24 05:32:33;;;;;;;62.20;18.35;;;5.70;99.90;;;;;;4867262;29;20038;-64
2022/01/24 05:34:58;;;;;;;82.47;18.10;;;5.70;99.90;;;;;;4853099;29;20467;-64
2022/01/24 05:37:24;;;;;;;113.43;20.77;;;5.70;99.90;;;;;;4863371;29;20041;-64
2022/01/24 05:39:49;;;;;;;97.70;20.60;;;5.70;99.90;;;;;;4863860;29;20041;-64
2022/01/24 05:42:18;;;;;;;70.45;18.45;;;5.80;99.90;;;;;;4859967;29;20818;-64
2022/01/24 05:44:44;;;;;;;66.00;18.92;;;5.70;99.90;;;;;;4865356;29;20401;-64
2022/01/24 05:47:09;;;;;;;117.15;22.17;;;5.70;99.90;;;;;;4867258;29;20037;-64
2022/01/24 05:49:35;;;;;;;102.65;20.42;;;5.60;99.90;;;;;;4865225;29;20037;-64
2022/01/24 05:52:02;;;;;;;66.38;16.98;;;5.60;99.90;;;;;;4864963;29;20039;-64
2022/01/24 05:54:30;;;;;;;91.05;18.35;;;5.60;99.90;;;;;;4863599;29;20055;-64
2022/01/24 05:56:56;;;;;;;66.68;16.33;;;5.60;99.90;;;;;;4861001;29;20136;-64
2022/01/24 05:59:21;;;;;;;85.18;17.80;;;5.60;99.90;;;;;;4865963;29;20051;-64
2022/01/24 06:01:47;;;;;;;57.88;16.23;;;5.70;99.90;;;;;;4867262;29;20401;-64
2022/01/24 06:04:12;;;;;;;95.28;18.45;;;5.60;99.90;;;;;;4847791;29;20900;-64
2022/01/24 06:06:37;;;;;;;81.15;17.50;;;5.60;99.90;;;;;;4865135;29;20036;-64
2022/01/24 06:09:03;;;;;;;73.38;17.20;;;5.70;99.90;;;;;;4862453;29;20029;-64
2022/01/24 06:11:28;;;;;;;53.80;15.10;;;5.70;99.90;;;;;;4860304;29;20581;-64
2022/01/24 06:13:54;;;;;;;92.82;17.02;;;5.70;99.90;;;;;;4851273;29;20050;-64
2022/01/24 06:16:20;;;;;;;80.82;16.98;;;5.70;99.90;;;;;;4850947;29;20069;-64
2022/01/24 06:18:45;;;;;;;80.50;16.30;;;5.70;99.90;;;;;;4864563;29;20032;-64
2022/01/24 06:21:11;;;;;;;71.65;16.50;;;5.80;99.90;;;;;;4844780;29;20737;-64
2022/01/24 06:23:36;;;;;;;68.80;15.48;;;5.70;99.90;;;;;;4861452;29;20820;-64
2022/01/24 06:26:02;;;;;;;77.53;15.90;;;5.60;99.90;;;;;;4844151;29;20560;-64
2022/01/24 06:28:27;;;;;;;61.63;13.88;;;5.60;99.90;;;;;;4867044;29;20037;-64
2022/01/24 06:30:53;;;;;;;79.40;13.75;;;5.60;99.90;;;;;;4868849;29;20044;-64
2022/01/24 06:33:19;;;;;;;65.88;13.05;;;5.50;99.90;;;;;;4862474;29;20128;-64
2022/01/24 06:35:44;;;;;;;87.18;14.27;;;5.50;99.90;;;;;;4852232;29;20064;-64
2022/01/24 06:38:10;;;;;;;85.53;13.27;;;5.40;99.90;;;;;;4859510;29;20666;-64
2022/01/24 06:40:35;;;;;;;78.65;13.80;;;5.40;99.90;;;;;;4845633;29;20028;-64
2022/01/24 06:43:01;;;;;;;68.55;12.75;;;5.40;99.90;;;;;;4864642;29;20040;-64
2022/01/24 06:45:26;;;;;;;71.10;12.95;;;5.50;99.90;;;;;;4864019;29;20091;-64
2022/01/24 06:47:52;;;;;;;67.85;13.68;;;5.50;99.90;;;;;;4866472;29;20048;-64
2022/01/24 06:50:17;;;;;;;70.57;14.77;;;5.50;99.90;;;;;;4860486;29;20073;-64
2022/01/24 06:52:43;;;;;;;97.60;24.35;;;5.40;99.90;;;;;;4861199;29;20482;-64
2022/01/24 06:55:08;;;;;;;101.50;22.15;;;5.50;99.90;;;;;;4867262;29;20055;-64
2022/01/24 06:57:34;;;;;;;66.40;14.05;;;5.40;99.90;;;;;;4864919;29;20623;-64
2022/01/24 06:59:59;;;;;;;64.93;11.60;;;5.40;99.90;;;;;;4865803;29;20049;-64
2022/01/24 07:02:25;;;;;;;80.80;13.63;;;5.50;99.90;;;;;;4837176;29;20030;-64
2022/01/24 07:04:50;;;;;;;71.93;13.35;;;5.50;99.90;;;;;;4863118;29;20028;-64
2022/01/24 07:07:16;;;;;;;75.35;12.88;;;5.50;99.90;;;;;;4840800;29;20080;-64
2022/01/24 07:09:41;;;;;;;70.35;13.35;;;5.50;99.90;;;;;;4851173;29;20033;-64
2022/01/24 07:12:07;;;;;;;81.10;14.20;;;5.50;99.90;;;;;;4866840;29;20037;-64
2022/01/24 07:14:32;;;;;;;97.60;14.13;;;5.50;99.90;;;;;;4866004;29;20041;-64
2022/01/24 07:19:23;;;;;;;84.65;14.82;;;5.50;99.90;;;;;;4861087;29;20080;-64
2022/01/24 07:21:48;;;;;;;62.72;14.50;;;5.40;99.90;;;;;;4862199;29;20544;-64
2022/01/24 07:24:14;;;;;;;64.82;13.27;;;5.40;99.90;;;;;;4850667;29;20029;-64
2022/01/24 07:26:39;;;;;;;62.13;13.00;;;5.40;99.90;;;;;;4864037;29;20041;-64
2022/01/24 07:29:05;;;;;;;71.60;12.90;;;5.50;99.90;;;;;;4863392;29;20025;-64
2022/01/24 07:31:30;;;;;;;83.38;14.15;;;5.40;99.90;;;;;;4860311;29;20263;-64
2022/01/24 07:33:56;;;;;;;76.13;13.68;;;5.50;99.90;;;;;;4860264;29;20025;-64
2022/01/24 07:36:21;;;;;;;61.47;12.15;;;5.50;99.90;;;;;;4861000;29;20140;-64
2022/01/24 07:38:47;;;;;;;61.90;12.50;;;5.50;99.90;;;;;;4865396;29;20037;-64
2022/01/24 07:41:15;;;;;;;42.50;11.73;;;5.50;99.90;;;;;;4864216;29;20041;-64
2022/01/24 07:43:40;;;;;;;60.13;16.05;;;5.40;99.90;;;;;;4863684;29;20029;-64
2022/01/24 07:46:05;;;;;;;47.10;12.35;;;5.40;99.90;;;;;;4843743;29;20419;-64
2022/01/24 07:48:31;;;;;;;58.08;12.88;;;5.50;99.90;;;;;;4860006;29;20499;-64
2022/01/24 07:50:56;;;;;;;130.48;48.55;;;5.50;99.90;;;;;;4863969;29;20037;-64
2022/01/24 07:53:23;;;;;;;68.72;16.50;;;5.60;99.90;;;;;;4865404;29;20096;-64
2022/01/24 07:55:49;;;;;;;48.97;13.15;;;5.60;99.90;;;;;;4864776;29;20048;-64
2022/01/24 07:58:14;;;;;;;54.22;14.63;;;5.60;99.90;;;;;;4861892;29;20409;-64
2022/01/24 08:00:40;;;;;;;80.78;17.45;;;5.60;99.90;;;;;;4848324;29;20083;-63
2022/01/24 08:03:05;;;;;;;75.57;15.20;;;5.70;99.90;;;;;;4848813;29;20093;-64
2022/01/24 08:05:31;;;;;;;80.47;16.73;;;5.70;99.90;;;;;;4865790;29;20037;-63
2022/01/24 08:07:56;;;;;;;88.45;17.33;;;5.70;99.90;;;;;;4864476;29;20121;-64
2022/01/24 08:10:22;;;;;;;86.18;18.85;;;5.80;99.90;;;;;;4863662;29;20037;-63
2022/01/24 08:12:47;;;;;;;64.85;16.05;;;5.70;99.90;;;;;;4864572;29;20040;-63
2022/01/24 08:15:14;;;;;;;89.53;31.98;;;5.60;99.90;;;;;;4862867;29;20081;-63
2022/01/24 08:17:40;;;;;;;95.07;21.67;;;5.50;99.90;;;;;;4862476;29;20111;-63
2022/01/24 08:20:05;;;;;;;72.15;22.77;;;5.60;99.90;;;;;;4865657;29;20025;-63
2022/01/24 08:22:30;;;;;;;79.95;16.70;;;5.60;99.90;;;;;;4862013;29;20304;-63
2022/01/24 08:24:56;;;;;;;69.85;14.45;;;5.70;99.90;;;;;;4865371;29;20029;-63
2022/01/24 08:27:24;;;;;;;52.28;13.98;;;5.80;99.90;;;;;;4842235;29;20097;-63
2022/01/24 08:29:50;;;;;;;71.80;16.13;;;5.90;99.90;;;;;;4854828;29;20085;-63
2022/01/24 08:32:15;;;;;;;53.25;14.23;;;5.90;99.90;;;;;;4865608;29;20557;-63
2022/01/24 08:34:41;;;;;;;59.75;14.00;;;5.90;99.90;;;;;;4865172;29;20140;-63
2022/01/24 08:37:06;;;;;;;42.97;12.75;;;5.90;99.90;;;;;;4860798;29;20833;-63
2022/01/24 08:39:32;;;;;;;46.75;13.15;;;5.90;99.90;;;;;;4869316;29;20071;-62
2022/01/24 08:42:11;;;;;;;51.63;14.18;;;5.90;99.90;;;;;;4867626;29;20044;-63
2022/01/24 08:47:21;;;;;;;56.75;15.75;;;6.20;99.90;;;;;;4853158;29;20052;-63
2022/01/24 08:49:46;;;;;;;55.15;15.40;;;6.20;99.90;;;;;;4853112;29;20085;-63
2022/01/24 08:52:11;;;;;;;67.35;18.15;;;6.30;99.90;;;;;;4851746;29;20041;-63
2022/01/24 08:54:37;;;;;;;65.40;17.15;;;6.30;99.90;;;;;;4851408;29;20043;-63
2022/01/24 08:57:02;;;;;;;64.72;17.75;;;6.30;99.90;;;;;;4867981;29;20497;-63
2022/01/24 08:59:28;;;;;;;85.22;26.65;;;6.30;99.90;;;;;;4869950;29;20167;-64
2022/01/24 09:01:53;;;;;;;66.18;18.02;;;6.20;99.90;;;;;;4852165;29;20037;-64
2022/01/24 09:04:19;;;;;;;64.38;18.35;;;6.20;99.90;;;;;;4868070;29;20051;-64
2022/01/24 09:06:44;;;;;;;83.63;21.88;;;6.20;99.90;;;;;;4863654;29;20029;-63
2022/01/24 09:09:10;;;;;;;78.60;22.15;;;6.20;99.90;;;;;;4868421;29;20089;-63
2022/01/24 09:11:35;;;;;;;68.57;18.65;;;6.20;99.90;;;;;;4865649;29;20469;-63
2022/01/24 09:14:01;;;;;;;52.17;16.23;;;6.10;99.90;;;;;;4850404;29;20033;-63
2022/01/24 09:16:26;;;;;;;60.45;17.90;;;6.10;99.90;;;;;;4867867;29;20127;-63
2022/01/24 09:18:52;;;;;;;59.00;17.38;;;6.20;99.90;;;;;;4867124;29;20152;-63
2022/01/24 09:21:17;;;;;;;46.90;15.18;;;6.30;99.90;;;;;;4866977;29;20080;-63
2022/01/24 09:23:43;;;;;;;51.05;16.38;;;6.40;99.90;;;;;;4866326;29;20086;-64
2022/01/24 09:26:08;;;;;;;46.17;15.73;;;6.40;99.90;;;;;;4863691;29;20037;-64
2022/01/24 09:28:34;;;;;;;46.03;16.15;;;6.40;99.90;;;;;;4864564;29;20037;-64
2022/01/24 09:30:59;;;;;;;42.72;15.60;;;6.50;99.90;;;;;;4866639;29;20477;-64
2022/01/24 09:33:25;;;;;;;45.92;16.40;;;6.50;99.90;;;;;;4864601;29;20037;-64
2022/01/24 09:35:51;;;;;;;43.15;16.17;;;6.60;99.90;;;;;;4866058;29;20045;-64
2022/01/24 09:38:17;;;;;;;42.63;16.77;;;6.70;99.90;;;;;;4865098;29;20049;-64
2022/01/24 09:40:42;;;;;;;40.40;15.75;;;6.80;99.90;;;;;;4862090;29;20112;-64
2022/01/24 09:43:08;;;;;;;38.90;15.73;;;6.80;99.90;;;;;;4849163;29;20461;-64
2022/01/24 09:45:33;;;;;;;38.70;15.23;;;6.80;99.90;;;;;;4850488;29;20068;-64
2022/01/24 09:47:59;;;;;;;42.53;16.25;;;6.80;99.90;;;;;;4864524;29;20032;-64
2022/01/24 09:50:24;;;;;;;42.17;16.83;;;6.80;99.90;;;;;;4866032;29;20103;-64
2022/01/24 09:52:50;;;;;;;41.53;15.95;;;6.90;99.90;;;;;;4862074;29;20041;-64
2022/01/24 09:55:15;;;;;;;42.67;15.88;;;7.00;99.90;;;;;;4851824;29;20169;-64
2022/01/24 09:57:41;;;;;;;39.55;15.30;;;7.00;99.90;;;;;;4865056;29;20413;-64
2022/01/24 10:00:07;;;;;;;37.60;15.27;;;7.00;99.90;;;;;;4848310;29;20037;-64
2022/01/24 10:02:37;;;;;;;40.13;15.38;;;6.90;99.90;;;;;;4865956;29;20056;-64
2022/01/24 10:05:02;;;;;;;38.63;15.65;;;6.90;99.90;;;;;;4851147;29;20076;-64
2022/01/24 10:07:28;;;;;;;33.50;15.52;;;7.00;99.90;;;;;;4843852;29;20036;-65
2022/01/24 10:09:55;;;;;;;49.70;20.67;;;7.00;99.90;;;;;;4858677;29;20036;-65
2022/01/24 10:17:30;;;;;;;40.72;17.63;;;6.90;99.90;;;;;;4851219;29;20052;-64
2022/01/24 10:19:55;;;;;;;36.72;14.50;;;6.90;99.90;;;;;;4863141;29;20033;-64
2022/01/24 10:22:21;;;;;;;35.38;15.50;;;7.00;99.90;;;;;;4862950;29;20040;-64
2022/01/24 10:24:48;;;;;;;37.00;15.60;;;7.10;99.90;;;;;;4869187;29;20225;-65
2022/01/24 10:27:15;;;;;;;34.03;14.35;;;7.10;99.90;;;;;;4862952;29;20033;-65
2022/01/24 10:29:40;;;;;;;35.05;14.98;;;7.10;99.90;;;;;;4862167;29;20037;-65
2022/01/24 10:32:06;;;;;;;33.17;14.25;;;7.10;99.90;;;;;;4844342;29;20037;-65
2022/01/24 10:34:36;;;;;;;33.97;14.85;;;7.10;99.90;;;;;;4855715;29;20056;-65
2022/01/24 10:37:02;;;;;;;36.35;15.50;;;7.00;99.90;;;;;;4860328;29;20028;-65
2022/01/24 10:39:53;;;;;;;34.67;14.07;;;7.00;99.90;;;;;;4865642;29;20529;-66
2022/01/24 10:44:50;;;;;;;43.30;16.20;;;6.80;99.90;;;;;;4860846;29;20036;-64
2022/01/24 10:47:15;;;;;;;47.00;19.30;;;6.70;99.90;;;;;;4863086;29;20036;-63
2022/01/24 10:49:41;;;;;;;43.05;16.83;;;6.60;99.90;;;;;;4865232;29;20069;-64
2022/01/24 10:52:06;;;;;;;39.35;15.15;;;6.50;99.90;;;;;;4849826;29;20077;-64
2022/01/24 10:54:32;;;;;;;49.97;15.95;;;6.50;99.90;;;;;;4850600;29;20037;-65
2022/01/24 10:56:58;;;;;;;44.03;15.60;;;6.40;99.90;;;;;;4869164;29;20123;-64
2022/01/24 10:59:24;;;;;;;40.08;15.27;;;6.50;99.90;;;;;;4863865;29;20044;-65
2022/01/24 11:01:49;;;;;;;45.03;16.17;;;6.40;99.90;;;;;;4855731;29;20398;-63
2022/01/24 11:04:15;;;;;;;34.08;13.07;;;6.40;99.90;;;;;;4856549;29;20036;-65
2022/01/24 11:06:40;;;;;;;35.20;13.25;;;6.30;99.90;;;;;;4848280;29;20036;-65
2022/01/24 11:09:06;;;;;;;42.10;14.13;;;6.30;99.90;;;;;;4862634;29;20040;-65
2022/01/24 11:11:32;;;;;;;32.55;13.05;;;6.30;99.90;;;;;;4850619;29;20411;-65
2022/01/24 11:13:57;;;;;;;42.00;14.25;;;6.20;99.90;;;;;;4861746;29;20068;-65
2022/01/24 11:16:22;;;;;;;32.33;13.50;;;6.30;99.90;;;;;;4847968;29;20120;-65
2022/01/24 11:18:48;;;;;;;43.90;14.60;;;6.40;99.90;;;;;;4849877;29;20040;-65
2022/01/24 11:21:15;;;;;;;42.75;13.73;;;6.40;99.90;;;;;;4862625;29;20033;-65
2022/01/24 11:23:43;;;;;;;43.22;14.25;;;6.50;99.90;;;;;;4861301;29;20029;-65
2022/01/24 11:26:08;;;;;;;42.75;15.55;;;6.60;99.90;;;;;;4859459;29;20033;-65
2022/01/24 11:28:34;;;;;;;34.53;13.82;;;6.70;99.90;;;;;;4850780;29;20040;-66
2022/01/24 11:31:00;;;;;;;32.90;13.10;;;6.70;99.90;;;;;;4862507;29;20029;-65
2022/01/24 11:33:25;;;;;;;30.75;12.35;;;6.70;99.90;;;;;;4849533;29;20053;-65
2022/01/24 11:35:52;;;;;;;31.35;12.48;;;6.70;99.90;;;;;;4865733;29;20120;-66
2022/01/24 11:38:17;;;;;;;29.15;11.85;;;6.70;99.90;;;;;;4867220;29;20383;-65
2022/01/24 11:40:43;;;;;;;30.48;11.27;;;6.70;99.90;;;;;;4860100;29;20044;-65
2022/01/24 11:43:09;;;;;;;31.10;12.65;;;6.60;99.90;;;;;;4864859;29;20702;-64
2022/01/24 11:45:34;;;;;;;26.17;12.57;;;6.60;99.90;;;;;;4864148;29;20116;-65
2022/01/24 11:48:00;;;;;;;27.70;11.95;;;6.60;99.90;;;;;;4864496;29;20033;-65
2022/01/24 11:50:25;;;;;;;29.98;12.85;;;6.50;99.90;;;;;;4864756;29;20405;-66
2022/01/24 11:52:51;;;;;;;30.88;13.60;;;6.60;99.90;;;;;;4848698;29;20056;-64
2022/01/24 11:55:30;;;;;;;35.40;14.95;;;6.50;99.90;;;;;;4861763;29;20111;-63
2022/01/24 11:57:56;;;;;;;27.10;12.13;;;6.40;99.90;;;;;;4864890;29;20771;-64
2022/01/24 12:00:21;;;;;;;35.33;12.10;;;6.50;99.90;;;;;;4848840;29;20041;-64
2022/01/24 12:02:47;;;;;;;34.53;12.40;;;6.50;99.90;;;;;;4863935;29;20397;-64
2022/01/24 12:05:12;;;;;;;31.75;12.68;;;6.40;99.90;;;;;;4862215;29;20856;-64
2022/01/24 12:07:38;;;;;;;26.52;12.05;;;6.40;99.90;;;;;;4847956;29;20033;-64
2022/01/24 12:10:03;;;;;;;31.77;11.23;;;6.40;99.90;;;;;;4849323;29;20530;-63
2022/01/24 12:12:34;;;;;;;23.27;10.30;;;6.40;99.90;;;;;;4857938;29;20955;-64
2022/01/24 12:15:00;;;;;;;24.83;10.82;;;6.40;99.90;;;;;;4847139;29;20603;-63
2022/01/24 12:17:25;;;;;;;25.52;11.90;;;6.30;99.90;;;;;;4851380;29;20120;-63
2022/01/24 12:19:51;;;;;;;28.08;10.55;;;6.40;99.90;;;;;;4864130;29;20048;-63
2022/01/24 12:22:16;;;;;;;31.27;12.93;;;6.30;99.90;;;;;;4865660;29;20124;-63
2022/01/24 12:24:41;;;;;;;21.48;9.80;;;6.20;99.90;;;;;;4851284;29;20482;-63
2022/01/24 12:27:07;;;;;;;28.88;10.95;;;6.20;99.90;;;;;;4865778;29;20033;-63
2022/01/24 12:29:34;;;;;;;22.58;10.20;;;6.20;99.90;;;;;;4866824;29;20041;-64
2022/01/24 12:32:02;;;;;;;21.85;9.65;;;6.20;99.90;;;;;;4868188;29;20571;-65
2022/01/24 12:34:27;;;;;;;21.73;8.57;;;6.20;99.90;;;;;;4848932;29;20033;-64
2022/01/24 12:37:00;;;;;;;22.65;10.43;;;6.20;99.90;;;;;;4858836;29;20574;-63
2022/01/24 12:39:25;;;;;;;21.48;9.20;;;6.20;99.90;;;;;;4866839;29;20052;-62
2022/01/24 12:41:54;;;;;;;24.27;10.82;;;6.20;99.90;;;;;;4862660;29;20546;-63
2022/01/24 12:47:05;;;;;;;;;;;6.20;99.90;;;;;;4837349;29;20049;-64
2022/01/24 12:49:31;;;;;;;25.13;11.07;;;6.20;99.90;;;;;;4861870;29;20035;-66
2022/01/24 12:51:56;;;;;;;27.63;11.15;;;6.20;99.90;;;;;;4859053;29;20049;-66
2022/01/24 12:54:22;;;;;;;26.17;10.77;;;6.20;99.90;;;;;;4814597;29;1087725;-64
2022/01/24 12:56:47;;;;;;;25.10;10.45;;;6.20;99.90;;;;;;4865338;29;20027;-63
2022/01/24 12:59:12;;;;;;;25.25;9.98;;;6.20;99.90;;;;;;4862771;29;20760;-64
2022/01/24 13:01:38;;;;;;;24.08;10.35;;;6.10;99.90;;;;;;4864516;29;20037;-64
2022/01/24 13:04:04;;;;;;;22.95;10.43;;;6.10;99.90;;;;;;4868713;29;20037;-64
2022/01/24 13:06:30;;;;;;;23.00;10.43;;;6.10;99.90;;;;;;4862558;29;20040;-64
2022/01/24 13:08:56;;;;;;;26.52;11.00;;;6.10;99.90;;;;;;4862906;29;20056;-64
2022/01/24 13:11:21;;;;;;;27.73;12.23;;;6.00;99.90;;;;;;4863651;29;20825;-64
2022/01/24 13:13:48;;;;;;;37.08;13.15;;;6.10;99.90;;;;;;4868653;29;20052;-65
2022/01/24 13:21:42;;;;;;;20.42;9.30;;;6.10;99.90;;;;;;4844176;29;20219;-64
2022/01/24 13:24:08;;;;;;;22.90;10.07;;;6.10;99.90;;;;;;4847776;29;20140;-64
2022/01/24 13:26:33;;;;;;;27.63;10.07;;;6.10;99.90;;;;;;4865759;29;20841;-64
2022/01/24 13:28:59;;;;;;;25.38;9.85;;;6.00;99.90;;;;;;4852341;29;20032;-64
2022/01/24 13:31:24;;;;;;;24.35;10.23;;;6.10;99.90;;;;;;4838944;29;20228;-64
2022/01/24 13:33:50;;;;;;;23.33;10.25;;;6.10;99.90;;;;;;4858743;29;20127;-64
2022/01/24 13:36:16;;;;;;;26.25;9.43;;;6.20;99.90;;;;;;4851502;29;20033;-64
2022/01/24 13:38:42;;;;;;;22.40;8.95;;;6.10;99.90;;;;;;4868430;29;20064;-63
2022/01/24 13:41:09;;;;;;;23.23;9.35;;;6.10;99.90;;;;;;4866353;29;20557;-67
2022/01/24 13:43:35;;;;;;;24.95;9.70;;;6.00;99.90;;;;;;4866521;29;20550;-67
2022/01/24 13:46:00;;;;;;;23.27;9.60;;;6.10;99.90;;;;;;4845168;29;20029;-67
2022/01/24 13:48:26;;;;;;;24.70;8.82;;;6.00;99.90;;;;;;4844924;29;20512;-67
2022/01/24 13:50:52;;;;;;;27.42;11.07;;;6.00;99.90;;;;;;4857144;29;20486;-67
2022/01/24 13:53:17;;;;;;;27.45;10.30;;;6.00;99.90;;;;;;4849259;29;20037;-67
2022/01/24 13:55:42;;;;;;;25.65;9.63;;;6.00;99.90;;;;;;4865818;29;20470;-67
2022/01/24 13:58:08;;;;;;;22.45;8.85;;;6.00;99.90;;;;;;4862280;29;20041;-67
2022/01/24 14:00:34;;;;;;;22.27;9.05;;;5.90;99.90;;;;;;4853012;29;20037;-67
2022/01/24 14:02:59;;;;;;;30.10;10.70;;;5.90;99.90;;;;;;4863261;29;20884;-67
2022/01/24 14:05:25;;;;;;;20.95;9.05;;;5.80;99.90;;;;;;4863960;29;20038;-67
2022/01/24 14:07:50;;;;;;;24.50;9.88;;;5.80;99.90;;;;;;4863216;29;20025;-67
2022/01/24 14:10:16;;;;;;;27.38;11.70;;;5.90;99.90;;;;;;4850321;29;20044;-67
2022/01/24 14:12:47;;;;;;;29.20;10.93;;;5.80;99.90;;;;;;4862095;29;20226;-66